Weather reports worldwide

Advertisment
Nimes/Courbessac, France (7645): temperature & dewpoint: 16.06.2018 15:00:00 - 22.06.2018 15:00:00 (CEST)Nimes/Courbessac, France (7645): temperature 5cm: 16.06.2018 15:00:00 - 22.06.2018 15:00:00 (CEST)Nimes/Courbessac, France (7645): temperature -20cm: 16.06.2018 15:00:00 - 22.06.2018 15:00:00 (CEST)Nimes/Courbessac, France (7645): wind speed & gusts: 16.06.2018 15:00:00 - 22.06.2018 15:00:00 (CEST)Nimes/Courbessac, France (7645): wind direction: 16.06.2018 15:00:00 - 22.06.2018 15:00:00 (CEST)Nimes/Courbessac, France (7645): reduced air pressure: 16.06.2018 15:00:00 - 22.06.2018 15:00:00 (CEST)Nimes/Courbessac, France (7645): sunshine duration: 16.06.2018 15:00:00 - 22.06.2018 15:00:00 (CEST)Nimes/Courbessac, France (7645): precipitation: 16.06.2018 15:00:00 - 22.06.2018 15:00:00 (CEST)
Date & Time tt [°C] td [°C] tt 5cm [°C] tt -20cm [°C] ff [km/h] ff [kn] fx [km/h] fx [kn] dd ppp [hPa] sd [min] rr [mm]
22.06.2018 15:00:00 27,0 2,1 30,3 26,0 33 18 70 38 N 1014,8 60 0,0
22.06.2018 14:00:00 26,8 1,9 30,0 25,7 27 15 68 37 N 1015,7 60 0,0
22.06.2018 13:00:00 25,3 1,4 29,5 25,6 34 18 66 36 N 1016,2 60 0,0
22.06.2018 12:00:00 24,9 5,1 28,1 25,4 25 14 56 30 N 1016,8 60 0,0
22.06.2018 11:00:00 23,3 6,5 27,3 25,5 28 15 57 31 N 1017,1 60 0,0
22.06.2018 10:00:00 22,4 9,9 21,5 25,6 20 11 37 20 N 1016,8 47 0,0
22.06.2018 09:00:00 20,9 9,8 19,4 25,7 16 9 38 20 NNE 1017,2 56 0,0
22.06.2018 08:00:00 19,0 9,7 18,9 25,9 18 10 37 20 N 1017,0 21 0,0
22.06.2018 07:00:00 19,5 10,5 18,8 26,1 18 10 35 19 N 1016,9 35 0,0
22.06.2018 06:00:00 20,2 11,9 19,3 26,3 21 11 42 23 N 1016,3 0 0,0
22.06.2018 05:00:00 20,8 14,0 19,8 26,5 17 9 35 19 N 1016,1 0 0,0
22.06.2018 04:00:00 21,5 14,6 20,5 26,7 19 11 41 22 N 1016,0 0 0,0
22.06.2018 03:00:00 22,4 15,0 21,4 26,9 14 8 26 14 N 1015,9 0 0,0
22.06.2018 02:00:00 23,1 15,4 21,9 27,1 11 6 27 15 N 1016,2 0 0,0
22.06.2018 01:00:00 23,6 16,1 22,4 27,2 13 7 28 15 N 1015,9 0 0,0
22.06.2018 00:00:00 23,9 19,0 22,8 27,4 8 4 18 10 N 1015,4 0 0,0
21.06.2018 23:00:00 25,5 18,4 24,4 27,5 9 5 20 11 N 1014,9 0 0,0
21.06.2018 22:00:00 24,9 19,9 24,2 27,6 11 6 21 12 N 1014,5 3 0,0
21.06.2018 21:00:00 25,3 19,9 24,4 27,7 15 8 25 14 N 1014,4 22 0,0
21.06.2018 20:00:00 25,2 20,0 23,6 27,7 9 5 22 12 N 1014,5 0 0,2
21.06.2018 19:00:00 24,8 21,5 23,6 27,6 11 6 29 16 NNW 1014,7 0 0,2
21.06.2018 18:00:00 30,9 16,1 31,1 27,2 18 10 32 17 SSW 1014,2 38 0,0
21.06.2018 17:00:00 33,1 18,1 38,2 26,9 14 8 27 15 SW 1014,0 60 0,0
21.06.2018 16:00:00 32,4 17,8 38,5 26,5 15 8 31 17 SW 1014,6 60 0,0
21.06.2018 15:00:00 32,7 18,1 39,7 26,1 9 5 23 12 WSW 1015,1 60 0,0
21.06.2018 14:00:00 32,0 18,2 38,1 25,7 11 6 23 12 S 1015,7 60 0,0
21.06.2018 13:00:00 30,9 17,2 37,4 25,4 12 7 22 12 SSW 1016,3 60 0,0
21.06.2018 12:00:00 29,7 17,8 36,4 25,2 10 5 20 11 S 1016,7 60 0,0
21.06.2018 11:00:00 28,8 17,3 34,1 25,1 6 3 18 10 SSE 1016,9 60 0,0
21.06.2018 10:00:00 27,6 18,3 31,7 25,1 3 2 9 5 SE 1017,4 60 0,0
21.06.2018 09:00:00 26,5 17,8 26,5 25,3 3 2 7 4 E 1017,6 60 0,0
21.06.2018 08:00:00 23,8 18,2 18,9 25,5 2 1 7 4 NNE 1017,7 57 0,0
21.06.2018 07:00:00 19,2 16,4 17,0 25,6 4 2 9 5 NNW 1017,8 25 0,0
21.06.2018 06:00:00 18,5 15,9 17,1 25,8 3 2 10 5 NNW 1017,6 0 0,0
21.06.2018 05:00:00 18,3 15,9 16,5 26,0 4 2 6 4 N 1017,7 0 0,0
21.06.2018 04:00:00 18,7 15,9 16,9 26,2 4 2 9 5 NNW 1018,1 0 0,0
21.06.2018 03:00:00 19,1 16,0 17,7 26,4 5 3 8 4 NE 1018,4 0 0,0
21.06.2018 02:00:00 19,6 16,8 18,1 26,6 2 1 11 6 N 1018,7 0 0,0
21.06.2018 01:00:00 20,5 16,9 18,4 26,8 4 2 9 5 NNW 1018,8 0 0,0
21.06.2018 00:00:00 21,2 17,0 18,8 26,9 4 2 9 5 N 1018,9 0 0,0
20.06.2018 23:00:00 21,5 17,1 18,9 27,1 0 0 6 3 N 1019,1 0 0,0
20.06.2018 22:00:00 23,4 17,4 20,9 27,2 6 3 16 9 S 1018,8 0 0,0
20.06.2018 21:00:00 25,8 17,2 24,0 27,2 9 5 20 11 S 1018,0 17 0,0
20.06.2018 20:00:00 27,6 17,5 28,9 27,1 14 7 24 13 S 1017,9 56 0,0
20.06.2018 19:00:00 29,2 18,3 32,6 26,9 15 8 31 17 S 1017,6 60 0,0
20.06.2018 18:00:00 30,1 17,2 35,0 26,7 16 9 31 17 S 1017,7 60 0,0
20.06.2018 17:00:00 30,2 17,6 35,0 26,3 16 9 29 16 S 1018,0 60 0,0
20.06.2018 16:00:00 30,3 16,7 34,9 26,0 20 11 32 18 S 1018,2 60 0,0
20.06.2018 15:00:00 30,6 17,7 35,1 25,6 18 10 30 16 S 1018,5 60 0,0
20.06.2018 14:00:00 30,0 16,8 34,4 25,2 21 12 32 17 SSE 1018,9 60 0,0
20.06.2018 13:00:00 29,8 17,3 34,7 24,9 16 8 25 13 S 1019,2 60 0,0
20.06.2018 12:00:00 30,0 19,4 34,6 24,7 12 6 27 15 SE 1019,2 60 0,0
20.06.2018 11:00:00 29,0 17,8 33,7 24,6 13 7 21 11 E 1019,3 60 0,0
20.06.2018 10:00:00 28,1 17,9 30,3 24,6 11 6 22 12 NE 1019,3 60 0,0
20.06.2018 09:00:00 26,0 16,8 25,7 24,7 10 5 28 15 N 1019,1 60 0,0
20.06.2018 08:00:00 23,7 16,0 21,1 24,8 12 6 26 14 N 1018,9 60 0,0
20.06.2018 07:00:00 22,1 15,4 20,1 25,0 11 6 16 9 N 1018,8 30 0,0
20.06.2018 06:00:00 21,5 14,9 20,2 25,1 10 5 17 9 N 1018,6 0 0,0
20.06.2018 05:00:00 22,0 14,6 20,5 25,3 9 5 19 10 N 1018,5 0 0,0
20.06.2018 04:00:00 22,5 14,6 21,2 25,5 10 5 22 12 N 1018,5 0 0,0
20.06.2018 03:00:00 23,2 14,7 21,0 25,6 14 8 22 12 NNW 1018,6 0 0,0
20.06.2018 02:00:00 22,6 14,7 20,4 25,8 6 3 16 9 NNW 1018,9 0 0,0
20.06.2018 01:00:00 23,3 14,6 21,5 26,0 6 4 15 8 NNW 1019,1 0 0,0
20.06.2018 00:00:00 23,5 14,5 20,7 26,1 8 5 15 8 N 1019,1 0 0,0
19.06.2018 23:00:00 23,7 14,7 20,5 26,2 5 3 8 5 N 1018,9 0 0,0
19.06.2018 22:00:00 25,6 14,7 23,1 26,3 5 3 13 7 NW 1018,5 2 0,0
19.06.2018 21:00:00 27,1 14,8 24,8 26,3 4 2 25 13 NNE 1018,3 60 0,0
19.06.2018 20:00:00 29,6 14,6 31,1 26,2 8 5 29 16 NE 1018,1 60 0,0
19.06.2018 19:00:00 30,7 15,2 33,2 26,0 15 8 28 15 NNE 1018,2 60 0,0
19.06.2018 18:00:00 31,6 16,0 35,2 25,7 13 7 25 13 NE 1018,5 60 0,0
19.06.2018 17:00:00 31,7 15,2 35,7 25,4 11 6 25 13 NNE 1018,8 60 0,0
19.06.2018 16:00:00 31,4 14,5 36,6 25,0 10 5 24 13 NNE 1019,2 60 0,0
19.06.2018 15:00:00 31,0 15,8 35,5 24,6 10 6 29 16 NE 1019,5 60 0,0
19.06.2018 14:00:00 29,8 15,9 33,8 24,2 16 8 38 21 NNE 1019,7 60 0,0
19.06.2018 13:00:00 28,6 14,8 32,7 23,9 21 12 40 22 NNE 1020,1 60 0,0
19.06.2018 12:00:00 27,7 15,0 30,3 23,8 18 10 40 22 NNE 1020,3 60 0,0
19.06.2018 11:00:00 25,9 14,4 28,2 23,7 21 12 49 26 NNE 1020,4 60 0,0
19.06.2018 10:00:00 24,4 13,6 26,4 23,7 25 14 53 29 NNE 1020,5 60 0,0
19.06.2018 09:00:00 23,1 13,3 23,4 23,8 24 13 58 32 N 1020,4 60 0,0
19.06.2018 08:00:00 22,1 12,6 19,7 24,0 24 13 54 29 N 1019,9 60 0,0
19.06.2018 07:00:00 20,8 12,2 19,2 24,2 18 10 43 23 N 1020,1 30 0,0
19.06.2018 06:00:00 20,1 11,8 19,2 24,3 16 9 51 28 N 1019,9 0 0,0
19.06.2018 05:00:00 20,4 11,9 19,3 24,5 20 11 45 24 N 1019,6 0 0,0
19.06.2018 04:00:00 20,2 11,7 19,2 24,7 16 9 37 20 N 1019,7 0 0,0
19.06.2018 03:00:00 20,7 11,6 19,8 24,8 18 10 38 21 N 1019,6 0 0,0
19.06.2018 02:00:00 21,0 11,3 20,2 25,0 20 11 37 20 N 1019,6 0 0,0
19.06.2018 01:00:00 21,3 11,3 20,3 25,2 16 9 35 19 N 1020,0 0 0,0
19.06.2018 00:00:00 22,1 11,2 21,0 25,3 14 8 42 23 N 1020,1 0 0,0
18.06.2018 23:00:00 22,7 11,1 21,8 25,5 17 9 38 20 NNW 1019,7 0 0,0
18.06.2018 22:00:00 23,4 11,1 22,4 25,6 18 10 42 23 N 1019,2 2 0,0
18.06.2018 21:00:00 24,8 11,0 24,1 25,6 22 12 45 24 N 1018,9 60 0,0
18.06.2018 20:00:00 26,7 11,6 27,8 25,6 22 12 50 27 N 1018,5 60 0,0
18.06.2018 19:00:00 27,5 11,9 29,7 25,4 26 14 53 28 N 1018,0 60 0,0
18.06.2018 18:00:00 28,4 12,7 31,5 25,2 21 12 43 23 N 1018,0 60 0,0
18.06.2018 17:00:00 28,4 11,9 31,3 24,9 24 13 48 26 NNE 1018,2 60 0,0
18.06.2018 16:00:00 28,5 11,1 32,7 24,6 22 12 46 25 N 1018,3 60 0,0
18.06.2018 15:00:00 28,0 10,7 32,1 24,1 23 12 44 24 N 1018,5 60 0,0
18.06.2018 14:00:00 27,6 11,6 31,3 23,8 19 10 50 27 N 1018,7 60 0,0
18.06.2018 13:00:00 26,2 10,8 30,3 23,5 22 12 52 28 N 1019,1 60 0,0
18.06.2018 12:00:00 25,7 11,8 28,8 23,4 19 11 63 34 N 1019,3 60 0,0
18.06.2018 11:00:00 24,4 10,3 26,5 23,3 23 13 54 29 N 1019,5 60 0,0
18.06.2018 10:00:00 22,9 9,3 24,7 23,4 26 14 55 30 N 1019,6 60 0,0
18.06.2018 09:00:00 21,7 9,2 21,9 23,5 17 9 42 23 N 1019,7 60 0,0
18.06.2018 08:00:00 20,5 9,1 17,5 23,6 16 9 33 18 N 1019,5 60 0,0
18.06.2018 07:00:00 19,4 9,0 17,3 23,8 4 2 25 14 NW 1019,3 29 0,0
18.06.2018 06:00:00 18,7 8,9 16,8 24,0 10 5 29 16 NW 1018,9 0 0,0
18.06.2018 05:00:00 18,7 9,2 16,4 24,2 6 4 18 10 W 1018,9 0 0,0
18.06.2018 04:00:00 19,0 9,2 17,0 24,4 8 5 34 19 NNW 1019,0 0 0,0
18.06.2018 03:00:00 19,1 9,0 17,8 24,6 8 5 27 15 NW 1018,9 0 0,0
18.06.2018 02:00:00 19,8 9,1 18,6 24,8 13 7 36 20 NNW 1019,3 0 0,0
18.06.2018 01:00:00 20,6 8,9 19,2 24,9 20 11 36 19 NNW 1019,2 0 0,0
18.06.2018 00:00:00 20,6 11,0 19,3 25,1 11 6 32 17 N 1019,4 0 0,0
17.06.2018 23:00:00 21,2 12,3 19,5 25,2 10 6 32 17 N 1019,1 0 0,0
17.06.2018 22:00:00 22,3 12,5 21,3 25,3 16 9 35 19 N 1018,3 2 0,0
17.06.2018 21:00:00 23,6 13,2 22,7 25,3 15 8 33 18 NNE 1017,4 57 0,0
17.06.2018 20:00:00 26,7 14,1 27,9 25,5 15 8 32 17 NE 1016,6 60 0,0
17.06.2018 19:00:00 27,9 12,3 27,2 25,2 14 8 42 23 N 1016,3 56 0,0
17.06.2018 18:00:00 27,0 12,2 27,6 25,2 19 11 44 24 N 1016,3 53 0,0
17.06.2018 17:00:00 27,6 12,8 28,2 25,1 22 12 46 25 N 1016,5 30 0,0
17.06.2018 16:00:00 28,0 13,5 29,1 24,6 18 10 37 20 N 1016,4 40 0,0
17.06.2018 15:00:00 27,5 13,1 28,6 24,2 19 11 43 23 N 1016,5 32 0,0
17.06.2018 14:00:00 26,6 13,0 28,7 23,9 23 12 44 24 NNW 1016,7 48 0,0
17.06.2018 13:00:00 26,9 13,3 29,4 23,6 19 10 43 23 NNW 1016,7 47 0,0
17.06.2018 12:00:00 26,3 13,1 29,4 23,5 22 12 48 26 NNW 1016,9 60 0,0
17.06.2018 11:00:00 25,8 13,0 28,5 23,4 19 11 49 26 NNW 1017,2 60 0,0
17.06.2018 10:00:00 24,4 12,7 26,9 23,5 21 11 48 26 N 1017,2 60 0,0
17.06.2018 09:00:00 22,9 13,1 22,2 23,6 16 8 40 21 NNW 1017,2 60 0,0
17.06.2018 08:00:00 20,7 12,1 18,8 23,7 19 10 37 20 NW 1016,9 60 0,0
17.06.2018 07:00:00 19,2 11,7 18,1 23,9 17 9 34 19 NW 1016,2 31 0,0
17.06.2018 06:00:00 18,8 11,6 18,0 24,1 19 11 34 19 NW 1015,9 0 0,0
17.06.2018 05:00:00 19,3 11,8 18,6 24,2 15 8 32 17 NW 1015,9 0 0,0
17.06.2018 04:00:00 19,9 12,2 19,1 24,4 16 9 32 17 NW 1015,8 0 0,0
17.06.2018 03:00:00 20,4 12,4 19,8 24,6 16 9 36 19 NW 1015,6 0 0,0
17.06.2018 02:00:00 20,8 12,5 20,0 24,7 16 9 33 18 NW 1015,3 0 0,0
17.06.2018 01:00:00 21,3 13,0 20,5 24,9 14 8 29 16 WNW 1015,6 0 0,0
17.06.2018 00:00:00 22,3 13,4 21,4 25,0 13 7 26 14 NW 1015,5 0 0,0
16.06.2018 23:00:00 23,5 14,5 21,7 25,1 9 5 20 11 WNW 1015,2 0 0,0
16.06.2018 22:00:00 24,0 13,2 22,4 25,1 6 3 19 10 NNW 1014,5 0 0,0
16.06.2018 21:00:00 25,1 13,6 23,6 25,2 8 4 23 12 NNE 1013,6 21 0,0
16.06.2018 20:00:00 27,6 14,2 28,3 25,1 13 7 22 12 NE 1013,1 42 0,0
16.06.2018 19:00:00 28,5 14,7 29,6 24,9 14 7 26 14 NE 1012,6 60 0,0
16.06.2018 18:00:00 28,4 14,6 29,3 24,7 17 9 27 15 NE 1012,6 21 0,0
16.06.2018 17:00:00 28,9 13,2 29,7 24,3 15 8 33 18 N 1012,7 39 0,0
16.06.2018 16:00:00 29,8 14,0 33,4 24,0 15 8 32 18 N 1012,8 57 0,0
16.06.2018 15:00:00 29,1 13,3 33,0 23,6 18 10 36 19 N 1013,4 57 0,0

tt = temperature
td = dewpoint
tt 5cm = temperature 5cm
tt -20cm = temperature -20cm
ff = wind speed
fx = gusts
dd = wind direction
ppp = reduced air pressure
sd = sunshine duration
rr = precipitation

Next stations